Time;durP1;ratioP1;P1;durP2;ratioP2;P2;SDS_P1;SDS_P2;PMS_P1;PMS_P2;Temp;Humidity;BMP_temperature;BMP_pressure;BME280_temperature;BME280_humidity;BME280_pressure;Samples;Min_cycle;Max_cycle;Signal;HPM_P1;HPM_P2
2021/11/01 00:02:11;;;;;;;73.13;41.35;;;;;;;3.61;74.85;93574.00;5092567;28;20054;-39
2021/11/01 00:04:37;;;;;;;68.55;39.28;;;;;;;3.78;74.52;93569.25;5092551;28;20016;-39
2021/11/01 00:07:02;;;;;;;62.03;38.15;;;;;;;3.65;74.29;93565.56;5091445;28;20032;-39
2021/11/01 00:09:29;;;;;;;63.65;36.03;;;;;;;3.62;74.34;93564.56;5084018;28;20473;-41
2021/11/01 00:11:55;;;;;;;56.97;33.47;;;;;;;3.68;74.46;93564.56;5087188;28;20455;-44
2021/11/01 00:14:22;;;;;;;53.22;30.48;;;;;;;3.67;74.66;93563.81;5091979;28;20028;-40
2021/11/01 00:16:47;;;;;;;47.67;28.60;;;;;;;3.68;75.01;93556.38;5091919;28;20134;-41
2021/11/01 00:19:13;;;;;;;47.15;29.67;;;;;;;3.72;74.90;93551.38;5091674;28;20058;-42
2021/11/01 00:21:39;;;;;;;41.85;26.40;;;;;;;3.78;75.20;93555.59;5081813;28;20024;-41
2021/11/01 00:24:04;;;;;;;47.42;27.80;;;;;;;3.72;75.00;93552.13;5082063;28;20016;-41
2021/11/01 00:26:30;;;;;;;47.25;27.42;;;;;;;3.74;74.56;93524.31;5080547;28;20012;-42
2021/11/01 00:28:55;;;;;;;40.22;24.15;;;;;;;3.97;74.14;93557.72;5081198;28;20070;-43
2021/11/01 00:31:21;;;;;;;46.63;25.65;;;;;;;3.92;74.44;93556.50;5081959;28;20023;-43
2021/11/01 00:33:46;;;;;;;41.65;25.33;;;;;;;3.92;74.63;93551.03;5080010;28;20028;-43
2021/11/01 00:36:12;;;;;;;40.55;24.77;;;;;;;3.83;74.67;93556.81;5081643;28;20020;-43
2021/11/01 00:38:37;;;;;;;37.60;23.58;;;;;;;3.45;76.19;93549.47;5081574;28;20024;-42
2021/11/01 00:41:03;;;;;;;35.85;21.13;;;;;;;3.64;76.55;93550.41;5079688;28;20105;-42
2021/11/01 00:43:28;;;;;;;34.10;20.98;;;;;;;3.77;76.07;93540.44;5081720;28;20020;-41
2021/11/01 00:45:55;;;;;;;34.95;22.23;;;;;;;3.79;75.75;93534.47;5079827;28;20024;-42
2021/11/01 00:48:20;;;;;;;32.47;20.13;;;;;;;3.80;74.39;93541.41;5080321;28;20070;-41
2021/11/01 00:50:46;;;;;;;30.15;18.38;;;;;;;3.65;74.68;93530.06;5078569;28;20020;-42
2021/11/01 00:53:12;;;;;;;29.58;18.92;;;;;;;3.76;74.26;93524.56;5070976;28;20037;-42
2021/11/01 00:55:52;;;;;;;43.13;24.02;;;;;;;3.82;73.68;93534.22;5070955;28;20051;-44
2021/11/01 00:58:18;;;;;;;60.53;35.50;;;;;;;3.82;73.91;93523.28;5071133;28;20025;-42
2021/11/01 01:00:44;;;;;;;62.30;35.95;;;;;;;3.83;73.63;93524.75;5084734;28;20031;-42
2021/11/01 01:03:10;;;;;;;48.72;30.60;;;;;;;3.99;72.83;93515.00;5090214;28;20024;-42
2021/11/01 01:05:36;;;;;;;55.03;32.65;;;;;;;4.04;72.71;93521.69;5087212;28;20020;-43
2021/11/01 01:08:02;;;;;;;54.03;31.38;;;;;;;3.95;72.78;93525.47;5078037;28;20085;-44
2021/11/01 01:10:27;;;;;;;49.10;29.75;;;;;;;3.88;72.77;93501.41;5079221;28;20025;-45
2021/11/01 01:12:53;;;;;;;49.28;29.55;;;;;;;3.90;72.58;93515.28;5079451;28;20029;-43
2021/11/01 01:15:25;;;;;;;47.17;29.05;;;;;;;3.84;72.79;93509.13;5080696;28;20036;-47
2021/11/01 01:17:51;;;;;;;42.53;26.65;;;;;;;3.87;72.96;93521.03;5079170;28;20519;-44
2021/11/01 01:20:18;;;;;;;44.10;25.92;;;;;;;3.85;73.23;93505.16;5078844;28;20039;-45
2021/11/01 01:22:44;;;;;;;54.55;26.65;;;;;;;3.80;73.14;93503.19;5079576;28;20040;-46
2021/11/01 01:25:22;;;;;;;45.88;28.35;;;;;;;3.72;73.09;93502.25;5087617;28;20683;-45
2021/11/01 01:27:49;;;;;;;43.83;27.38;;;;;;;3.68;73.57;93494.28;5090243;28;20032;-44
2021/11/01 01:30:15;;;;;;;51.95;30.40;;;;;;;3.58;73.90;93474.00;5095468;28;20504;-45
2021/11/01 01:32:42;;;;;;;44.63;26.98;;;;;;;3.68;75.24;93490.84;5099387;28;20109;-45
2021/11/01 01:35:08;;;;;;;45.72;26.10;;;;;;;3.71;75.68;93496.03;5090778;28;20016;-45
2021/11/01 01:37:34;;;;;;;44.40;25.92;;;;;;;3.58;75.40;93465.06;5090318;28;20030;-44
2021/11/01 01:39:59;;;;;;;49.95;29.13;;;;;;;3.82;74.33;93484.31;5090284;28;20094;-45
2021/11/01 01:42:25;;;;;;;44.42;27.70;;;;;;;3.82;73.71;93476.13;5090620;28;20020;-46
2021/11/01 01:44:50;;;;;;;45.10;29.08;;;;;;;3.99;72.73;93481.47;5090474;28;20545;-44
2021/11/01 01:47:17;;;;;;;37.72;24.02;;;;;;;4.00;73.23;93478.25;5089933;28;20028;-46
2021/11/01 01:49:43;;;;;;;35.80;23.75;;;;;;;4.02;72.92;93472.28;5090311;28;20016;-46
2021/11/01 01:52:09;;;;;;;39.70;22.23;;;;;;;4.03;72.55;93462.84;5088936;28;20039;-44
2021/11/01 01:54:35;;;;;;;36.03;21.33;;;;;;;3.96;72.96;93444.25;5090144;28;20157;-48
2021/11/01 01:57:00;;;;;;;32.17;20.52;;;;;;;3.87;74.04;93466.41;5090149;28;20061;-44
2021/11/01 01:59:26;;;;;;;31.10;17.90;;;;;;;3.73;74.83;93465.47;5090002;28;20035;-45
2021/11/01 02:01:52;;;;;;;29.70;17.23;;;;;;;3.62;74.94;93444.44;5090427;28;20032;-46
2021/11/01 02:04:25;;;;;;;30.02;18.90;;;;;;;3.71;75.44;93463.25;5090394;28;20513;-46
2021/11/01 02:07:24;;;;;;;35.70;20.30;;;;;;;3.93;75.01;93464.38;5089788;28;20508;-47
2021/11/01 02:10:07;;;;;;;35.67;23.70;;;;;;;3.87;75.46;93464.44;5089354;28;20055;-45
2021/11/01 02:12:49;;;;;;;40.10;22.05;;;;;;;3.93;75.32;93462.41;5090419;28;20035;-43
2021/11/01 02:15:20;;;;;;;43.55;25.45;;;;;;;4.00;76.21;93461.13;5093540;28;20028;-43
2021/11/01 02:17:47;;;;;;;36.33;22.40;;;;;;;4.15;75.78;93450.59;5094422;28;20082;-43
2021/11/01 02:20:22;;;;;;;46.88;23.23;;;;;;;4.24;75.75;93455.75;5093278;28;20020;-44
2021/11/01 02:23:08;;;;;;;38.25;22.10;;;;;;;4.33;75.49;93453.44;5076082;28;20486;-43
2021/11/01 02:25:40;;;;;;;32.42;20.38;;;;;;;4.35;74.93;93448.19;5074137;28;20421;-43
2021/11/01 02:28:09;;;;;;;28.85;19.52;;;;;;;4.23;75.33;93444.06;5079025;28;20047;-43
2021/11/01 02:30:35;;;;;;;30.58;18.25;;;;;;;4.25;75.84;93449.03;5102504;28;20038;-44
2021/11/01 02:33:01;;;;;;;28.65;17.10;;;;;;;4.24;75.76;93448.31;5114219;28;20031;-43
2021/11/01 02:35:27;;;;;;;33.05;19.55;;;;;;;4.29;75.63;93442.03;5114263;28;20027;-47
2021/11/01 02:37:52;;;;;;;40.83;24.30;;;;;;;4.37;74.29;93450.44;5113816;28;20028;-44
2021/11/01 02:40:18;;;;;;;41.30;23.90;;;;;;;4.30;74.25;93454.47;5112590;28;20028;-45
2021/11/01 02:42:43;;;;;;;47.38;26.70;;;;;;;4.29;74.00;93454.94;5113451;28;20458;-45
2021/11/01 02:45:12;;;;;;;50.30;28.00;;;;;;;4.29;74.12;93449.50;5114313;28;20023;-47
2021/11/01 02:47:37;;;;;;;43.85;25.30;;;;;;;4.09;74.38;93425.31;5112872;28;20110;-44
2021/11/01 02:50:10;;;;;;;38.38;24.58;;;;;;;4.15;74.81;93456.06;5113912;28;20106;-45
2021/11/01 02:52:36;;;;;;;42.88;25.05;;;;;;;4.05;75.57;93447.41;5110707;28;20115;-44
2021/11/01 02:55:05;;;;;;;34.33;19.98;;;;;;;4.09;75.53;93441.69;5085662;28;20112;-43
2021/11/01 02:57:30;;;;;;;38.08;21.92;;;;;;;3.87;76.54;93439.84;5073363;28;20556;-43
2021/11/01 02:59:56;;;;;;;34.08;21.25;;;;;;;3.82;76.90;93440.63;5073459;28;20039;-43
2021/11/01 03:02:21;;;;;;;32.60;18.42;;;;;;;3.76;75.70;93439.91;5073336;28;20024;-43
2021/11/01 03:04:47;;;;;;;38.53;21.90;;;;;;;3.59;76.48;93433.78;5073288;28;20401;-44
2021/11/01 03:07:14;;;;;;;47.95;24.17;;;;;;;3.57;75.84;93437.00;5072205;28;20047;-44
2021/11/01 03:09:44;;;;;;;42.70;24.27;;;;;;;3.52;75.13;93407.78;5073000;28;20021;-46
2021/11/01 03:12:12;;;;;;;45.75;24.23;;;;;;;3.76;74.66;93432.47;5072114;28;20031;-43
2021/11/01 03:14:43;;;;;;;44.70;24.27;;;;;;;3.69;74.67;93427.53;5071877;28;20513;-43
2021/11/01 03:17:12;;;;;;;38.95;23.23;;;;;;;3.51;75.05;93433.56;5072851;28;20033;-44
2021/11/01 03:19:41;;;;;;;47.13;24.92;;;;;;;3.35;75.07;93434.41;5072544;28;20068;-42
2021/11/01 03:22:06;;;;;;;42.73;25.23;;;;;;;3.20;76.77;93431.22;5082182;28;20024;-43
2021/11/01 03:24:39;;;;;;;44.50;23.02;;;;;;;3.42;76.28;93427.69;5091692;28;20450;-43
2021/11/01 03:27:07;;;;;;;34.00;19.25;;;;;;;3.52;76.19;93426.13;5090770;28;20055;-42
2021/11/01 03:29:34;;;;;;;35.88;19.73;;;;;;;3.58;76.74;93421.38;5091317;28;20024;-43
2021/11/01 03:32:03;;;;;;;34.35;20.33;;;;;;;3.22;76.83;93422.53;5091603;28;20040;-41
2021/11/01 03:34:29;;;;;;;39.85;21.55;;;;;;;3.07;78.84;93423.56;5093134;28;20035;-42
2021/11/01 03:36:57;;;;;;;31.95;18.73;;;;;;;2.98;79.30;93418.41;5092502;28;20091;-43
2021/11/01 03:39:23;;;;;;;34.75;18.58;;;;;;;3.05;79.82;93423.31;5092526;28;20103;-43
2021/11/01 03:41:49;;;;;;;29.13;17.63;;;;;;;3.26;78.95;93426.50;5092978;28;20103;-43
2021/11/01 03:44:21;;;;;;;34.90;18.80;;;;;;;3.18;79.40;93425.53;5091127;28;20127;-43
2021/11/01 03:46:59;;;;;;;36.63;20.50;;;;;;;3.26;79.47;93403.91;5091674;28;20485;-43
2021/11/01 03:49:27;;;;;;;36.17;19.38;;;;;;;3.57;78.39;93419.91;5106793;28;20102;-42
2021/11/01 03:52:15;;;;;;;38.40;19.65;;;;;;;3.54;78.32;93420.91;5099994;28;20492;-42
2021/11/01 03:54:41;;;;;;;39.22;19.65;;;;;;;3.66;78.14;93419.63;5092742;28;20435;-42
2021/11/01 03:57:08;;;;;;;46.30;22.35;;;;;;;3.75;77.10;93408.38;5091304;28;20031;-42
2021/11/01 03:59:35;;;;;;;47.63;24.55;;;;;;;3.75;77.16;93408.38;5092419;28;20490;-42
2021/11/01 04:02:01;;;;;;;65.20;29.40;;;;;;;3.73;76.84;93399.94;5090352;28;20559;-42
2021/11/01 04:04:27;;;;;;;81.00;31.80;;;;;;;3.94;77.53;93414.75;5092025;28;20409;-42
2021/11/01 04:06:52;;;;;;;94.05;32.95;;;;;;;3.89;78.29;93415.50;5091703;28;20111;-43
2021/11/01 04:09:18;;;;;;;104.63;32.42;;;;;;;3.92;77.36;93419.94;5091843;28;20044;-43
2021/11/01 04:11:49;;;;;;;189.57;73.75;;;;;;;3.55;79.04;93408.75;5090856;28;20024;-42
2021/11/01 04:15:01;;;;;;;153.85;60.63;;;;;;;3.52;79.55;93407.03;5091001;28;20030;-44
2021/11/01 04:17:09;;;;;;;107.57;51.22;;;;;;;3.62;80.19;93410.94;5088883;28;20039;-42
2021/11/01 04:19:44;;;;;;;83.50;38.45;;;;;;;3.70;79.87;93406.44;5092028;28;20028;-41
2021/11/01 04:22:10;;;;;;;65.35;35.45;;;;;;;3.73;80.17;93408.13;5092147;28;20029;-41
2021/11/01 04:24:35;;;;;;;59.83;32.85;;;;;;;3.83;79.37;93409.34;5091867;28;20083;-42
2021/11/01 04:27:01;;;;;;;52.85;29.13;;;;;;;3.93;79.26;93402.31;5091543;28;20028;-43
2021/11/01 04:29:30;;;;;;;48.58;26.08;;;;;;;4.00;79.33;93401.03;5091977;28;20505;-43
2021/11/01 04:32:04;;;;;;;52.70;28.20;;;;;;;4.04;79.00;93402.25;5091877;28;20016;-44
2021/11/01 04:34:36;;;;;;;56.38;30.63;;;;;;;4.08;79.12;93402.69;5091633;28;20039;-42
2021/11/01 04:37:01;;;;;;;57.50;30.83;;;;;;;4.24;78.33;93401.84;5090656;28;20060;-45
2021/11/01 04:55:18;;;;;;;89.10;47.83;;;;;;;4.42;78.59;93403.91;5091445;28;20101;-45
2021/11/01 04:57:44;;;;;;;86.20;43.25;;;;;;;4.50;78.63;93398.66;5091259;28;20036;-43
2021/11/01 05:00:10;;;;;;;80.72;43.33;;;;;;;4.43;79.00;93393.72;5091434;28;20485;-45
2021/11/01 05:02:38;;;;;;;68.63;35.47;;;;;;;4.27;79.99;93402.81;5091018;28;20509;-44
2021/11/01 05:05:05;;;;;;;66.75;33.20;;;;;;;4.28;80.75;93393.38;5091268;28;20028;-47
2021/11/01 05:07:30;;;;;;;65.15;33.05;;;;;;;4.40;80.76;93400.22;5072244;28;20048;-43
2021/11/01 05:10:03;;;;;;;59.20;33.55;;;;;;;4.41;80.95;93402.44;5070526;28;20025;-46
2021/11/01 05:12:36;;;;;;;69.07;33.22;;;;;;;4.57;81.17;93403.53;5070687;28;20028;-45
2021/11/01 05:15:23;;;;;;;59.63;29.83;;;;;;;4.71;80.39;93393.47;5070493;28;20028;-44
2021/11/01 05:30:32;;;;;;;58.78;31.67;;;;;;;5.23;78.73;93389.19;5070549;28;20446;-44
2021/11/01 05:35:44;;;;;;;61.72;32.35;;;;;;;5.30;78.24;93393.34;5058990;28;20447;-45
2021/11/01 05:38:09;;;;;;;51.45;30.25;;;;;;;5.28;78.17;93393.13;5070444;28;20032;-43
2021/11/01 05:40:35;;;;;;;47.95;23.67;;;;;;;5.27;77.74;93378.69;5070408;28;20051;-43
2021/11/01 05:43:02;;;;;;;49.78;28.38;;;;;;;5.47;78.18;93393.88;5071333;28;20024;-44
2021/11/01 05:45:28;;;;;;;56.10;29.90;;;;;;;5.54;78.06;93398.03;5089718;28;20032;-43
2021/11/01 05:47:59;;;;;;;53.78;28.80;;;;;;;5.56;78.25;93407.19;5090283;28;20026;-44
2021/11/01 05:50:26;;;;;;;39.72;25.10;;;;;;;5.68;78.72;93407.78;5089853;28;20028;-45
2021/11/01 05:52:52;;;;;;;52.55;26.67;;;;;;;5.63;79.09;93406.59;5089590;28;20486;-42
2021/11/01 06:13:34;;;;;;;34.92;22.05;;;;;;;5.64;81.47;93408.09;5078720;28;20032;-41
2021/11/01 06:16:01;;;;;;;44.05;24.20;;;;;;;5.62;81.97;93404.38;5069781;28;20025;-42
2021/11/01 06:18:36;;;;;;;41.30;25.13;;;;;;;5.83;81.72;93411.56;5069668;28;20024;-43
2021/11/01 06:21:04;;;;;;;38.50;24.52;;;;;;;6.02;81.07;93409.56;5071105;28;20032;-41
2021/11/01 06:23:29;;;;;;;45.83;25.92;;;;;;;6.16;80.90;93413.13;5090224;28;20405;-43
2021/11/01 06:25:56;;;;;;;49.67;29.92;;;;;;;6.32;80.41;93408.66;5090123;28;20024;-44
2021/11/01 06:28:21;;;;;;;61.15;29.80;;;;;;;6.46;79.38;93407.41;5090180;28;20035;-42
2021/11/01 06:30:57;;;;;;;53.67;31.73;;;;;;;6.58;78.75;93414.94;5088688;28;20020;-42
2021/11/01 06:41:51;;;;;;;41.05;23.95;;;;;;;6.98;77.54;93407.53;5089996;28;20035;-43
2021/11/01 07:16:26;;;;;;;35.97;22.00;;;;;;;7.64;75.83;93384.25;5086300;28;20593;-45
2021/11/01 07:19:05;;;;;;;36.53;22.77;;;;;;;7.67;76.30;93387.97;5111273;27;20143;-44
2021/11/01 08:38:07;;;;;;;14.88;11.57;;;;;;;16.75;46.14;93341.44;5075529;28;20035;-43
2021/11/01 08:48:44;;;;;;;18.95;10.98;;;;;;;19.33;37.34;93320.53;5079003;28;20669;-43
2021/11/01 09:26:14;;;;;;;11.93;10.73;;;;;;;23.47;29.59;93292.28;5085859;28;20409;-45
2021/11/01 09:28:55;;;;;;;11.80;9.90;;;;;;;23.04;29.44;93289.63;5086543;28;20023;-46
2021/11/01 09:37:04;;;;;;;17.15;11.02;;;;;;;24.64;28.57;93283.81;5077156;28;20027;-44
2021/11/01 09:40:54;;;;;;;11.27;9.20;;;;;;;24.91;26.38;93289.13;5088029;28;20031;-44
2021/11/01 09:42:30;;;;;;;10.30;9.15;;;;;;;25.20;26.75;93280.34;5079675;28;20067;-44
2021/11/01 09:44:55;;;;;;;11.90;10.65;;;;;;;24.63;27.45;93265.41;5077783;28;20044;-46
2021/11/01 09:47:21;;;;;;;12.85;9.52;;;;;;;24.93;26.60;93277.88;5071341;28;20047;-44
2021/11/01 09:49:47;;;;;;;12.73;10.68;;;;;;;25.18;27.31;93265.41;5076581;28;20035;-43
2021/11/01 09:52:13;;;;;;;10.63;9.35;;;;;;;25.12;26.36;93260.25;5080235;28;20028;-44
2021/11/01 09:54:42;;;;;;;12.15;10.80;;;;;;;25.01;26.93;93258.44;5074093;28;20031;-44
2021/11/01 09:57:28;;;;;;;14.35;10.80;;;;;;;24.61;27.87;93259.69;5079580;28;20501;-45
2021/11/01 09:59:54;;;;;;;10.57;9.07;;;;;;;23.94;28.96;93254.16;5077205;28;20077;-43
2021/11/01 10:02:21;;;;;;;15.27;9.07;;;;;;;24.45;26.19;93253.41;5077272;28;20024;-44
2021/11/01 10:04:50;;;;;;;11.93;9.13;;;;;;;24.64;26.92;93244.28;5079932;28;20027;-47
2021/11/01 10:07:21;;;;;;;10.27;9.27;;;;;;;24.42;25.77;93240.59;5066913;28;20016;-44
2021/11/01 10:09:51;;;;;;;10.77;9.23;;;;;;;24.32;25.92;93237.38;5067063;28;20107;-45
2021/11/01 10:12:31;;;;;;;10.88;9.32;;;;;;;23.69;27.83;93237.56;5072345;28;20024;-43
2021/11/01 10:18:02;;;;;;;9.00;8.13;;;;;;;24.12;26.06;93231.66;5082784;28;20532;-45
2021/11/01 10:20:30;;;;;;;11.93;9.88;;;;;;;24.50;26.76;93218.31;5077484;28;20099;-43
2021/11/01 10:22:56;;;;;;;12.40;8.98;;;;;;;24.91;26.06;93212.84;5076013;28;20024;-43
2021/11/01 10:25:23;;;;;;;9.43;7.68;;;;;;;24.39;24.84;93208.72;5077522;28;20080;-43
2021/11/01 10:27:57;;;;;;;10.30;7.75;;;;;;;24.36;25.07;93210.03;5075250;28;20105;-46
2021/11/01 10:30:32;;;;;;;9.55;8.43;;;;;;;24.31;24.83;93204.88;5074688;28;20084;-48
2021/11/01 10:33:00;;;;;;;9.77;8.13;;;;;;;25.00;25.25;93206.13;5072362;28;20449;-46
2021/11/01 10:35:31;;;;;;;14.43;8.20;;;;;;;24.87;24.08;93195.75;5078166;28;20107;-45
2021/11/01 10:38:20;;;;;;;12.32;8.85;;;;;;;24.40;24.98;93195.34;5082334;28;20028;-45
2021/11/01 10:41:06;;;;;;;8.98;8.07;;;;;;;24.93;24.01;93198.81;5079721;28;20023;-45
2021/11/01 10:44:10;;;;;;;11.40;9.35;;;;;;;24.68;25.02;93185.13;5081604;28;20094;-46
2021/11/01 11:11:31;;;;;;;11.18;7.55;;;;;;;23.33;25.80;93162.78;5076589;28;20038;-48
2021/11/01 11:47:26;;;;;;;11.60;9.07;;;;;;;19.98;30.67;93134.50;5107191;28;20106;-50
2021/11/01 11:49:54;;;;;;;11.07;9.55;;;;;;;19.34;31.79;93133.69;5109144;28;20085;-49
2021/11/01 11:52:22;;;;;;;10.35;9.10;;;;;;;19.71;31.78;93122.47;5109263;28;20027;-50
2021/11/01 11:54:54;;;;;;;10.30;8.88;;;;;;;20.34;30.97;93128.06;5108644;28;20049;-50
2021/11/01 11:57:20;;;;;;;10.95;8.35;;;;;;;20.90;30.43;93123.91;5101501;28;20036;-48
2021/11/01 11:59:48;;;;;;;11.60;8.90;;;;;;;21.31;29.39;93123.91;5097139;28;20509;-50
2021/11/01 12:02:14;;;;;;;11.20;8.75;;;;;;;21.26;28.07;93116.63;5089796;28;20408;-48
2021/11/01 12:04:45;;;;;;;10.57;9.07;;;;;;;21.09;29.31;93123.53;5089688;28;20032;-50
2021/11/01 12:07:14;;;;;;;11.20;8.80;;;;;;;21.24;28.76;93117.25;5088755;28;20034;-49
2021/11/01 12:09:54;;;;;;;9.40;7.90;;;;;;;21.69;28.32;93109.63;5089580;28;20039;-47
2021/11/01 12:12:50;;;;;;;8.73;7.63;;;;;;;21.75;27.45;93106.34;5089620;28;20096;-49
2021/11/01 12:17:58;;;;;;;10.63;8.63;;;;;;;21.56;27.69;93109.66;5078453;28;20326;-47
2021/11/01 12:20:23;;;;;;;9.48;7.85;;;;;;;20.90;28.15;93110.59;5069165;28;20421;-52
2021/11/01 12:22:50;;;;;;;17.65;8.90;;;;;;;21.12;29.90;93111.75;5069274;28;20034;-49
2021/11/01 12:25:22;;;;;;;11.05;8.88;;;;;;;20.84;29.48;93107.50;5068407;28;20028;-47
2021/11/01 12:27:58;;;;;;;59.30;10.80;;;;;;;21.06;29.18;93110.72;5069499;28;20059;-48
2021/11/01 12:30:26;;;;;;;48.55;9.95;;;;;;;21.09;28.56;93110.19;5069505;28;20039;-49
2021/11/01 12:32:52;;;;;;;8.45;6.93;;;;;;;20.89;28.11;93109.16;5069082;28;20111;-48
2021/11/01 12:35:28;;;;;;;8.60;6.32;;;;;;;21.01;27.96;93111.84;5069279;28;20103;-48
2021/11/01 12:38:03;;;;;;;9.60;7.38;;;;;;;21.12;27.54;93103.34;5090032;28;20136;-46
2021/11/01 12:57:16;;;;;;;;;;;;;;;20.28;28.96;93084.94;5072254;28;20051;-49
2021/11/01 12:59:46;;;;;;;16.70;9.55;;;;;;;19.83;30.25;93081.84;5077660;28;19924;-49
2021/11/01 13:02:32;;;;;;;54.90;9.95;;;;;;;19.56;30.60;93076.16;5077009;28;20077;-56
2021/11/01 13:05:01;;;;;;;20.67;7.80;;;;;;;19.54;30.50;93084.44;5078518;28;20037;-49
2021/11/01 13:20:39;;;;;;;20.92;16.20;;;;;;;18.52;30.04;93071.63;5077414;28;20031;-51
2021/11/01 13:23:06;;;;;;;8.32;7.43;;;;;;;18.16;31.06;93075.75;5068388;28;20106;-49
2021/11/01 13:25:43;;;;;;;13.35;9.25;;;;;;;18.21;32.41;93073.22;5068451;28;20029;-48
2021/11/01 13:38:53;;;;;;;11.27;7.95;;;;;;;17.99;31.00;93070.53;5068006;28;20056;-50
2021/11/01 13:41:27;;;;;;;;;;;;;;;17.82;31.69;93079.25;5073418;28;20703;-49
2021/11/01 13:44:09;;;;;;;15.30;8.55;;;;;;;17.82;33.46;93076.44;5076160;28;20486;-49
2021/11/01 13:46:42;;;;;;;9.73;7.88;;;;;;;17.50;31.96;93068.88;5076488;28;20028;-51
2021/11/01 13:49:09;;;;;;;12.60;8.40;;;;;;;17.42;32.93;93071.13;5076045;28;20017;-51
2021/11/01 13:51:34;;;;;;;12.63;9.45;;;;;;;17.32;32.59;93076.09;5075836;28;20417;-52
2021/11/01 13:56:38;;;;;;;9.60;7.20;;;;;;;16.98;32.29;93077.41;5075233;28;20523;-48
2021/11/01 13:59:27;;;;;;;14.77;9.02;;;;;;;16.81;33.17;93069.34;5073683;28;20383;-50
2021/11/01 14:02:47;;;;;;;15.77;11.65;;;;;;;16.84;35.08;93062.56;5077186;28;20029;-51
2021/11/01 14:35:28;;;;;;;17.77;11.82;;;;;;;16.37;38.38;93053.19;5086939;28;20034;-57
2021/11/01 15:16:19;;;;;;;14.00;9.90;;;;;;;14.24;43.77;93060.38;5086546;28;20035;-50
2021/11/01 15:35:04;;;;;;;17.52;12.52;;;;;;;12.44;49.77;93059.59;5058807;28;20070;-50
2021/11/01 16:15:17;;;;;;;44.53;27.45;;;;;;;11.71;51.14;93069.50;5096316;28;20108;-52
2021/11/01 16:18:38;;;;;;;41.38;26.70;;;;;;;10.45;56.17;93082.16;5067628;28;20033;-48
2021/11/01 16:21:03;;;;;;;36.95;21.83;;;;;;;10.31;58.09;93075.38;5083603;28;20612;-48
2021/11/01 16:23:38;;;;;;;28.58;18.45;;;;;;;10.55;58.47;93085.03;5097962;28;20024;-46
2021/11/01 16:26:17;;;;;;;42.15;23.80;;;;;;;10.45;59.03;93062.09;5097821;28;20532;-48
2021/11/01 16:28:42;;;;;;;;;;;;;;;10.61;57.54;93085.59;5096045;28;20527;-46
2021/11/01 16:31:26;;;;;;;100.88;52.45;;;;;;;10.64;55.58;93090.00;5088295;28;19908;-49
2021/11/01 16:34:00;;;;;;;87.90;50.58;;;;;;;10.42;56.78;93079.75;5088673;28;20035;-51
2021/11/01 16:36:46;;;;;;;110.68;47.15;;;;;;;10.43;56.45;93076.44;5088704;28;20024;-50
2021/11/01 16:39:15;;;;;;;88.97;48.35;;;;;;;10.42;56.41;93086.00;5087685;28;20024;-46
2021/11/01 16:41:41;;;;;;;;;;;;;;;10.23;56.60;93085.69;5093459;28;20035;-47
2021/11/01 16:44:16;;;;;;;48.63;32.38;;;;;;;10.03;58.49;93083.84;5105937;28;19918;-47
2021/11/01 16:46:43;;;;;;;57.38;34.35;;;;;;;10.17;58.53;93092.69;5097741;27;20050;-49
2021/11/01 16:49:12;;;;;;;49.50;33.58;;;;;;;10.32;57.66;93092.66;5091604;28;20016;-49
2021/11/01 16:51:40;;;;;;;;;;;;;;;10.08;58.15;93096.00;5090708;28;20527;-49
2021/11/01 16:54:08;;;;;;;53.00;32.60;;;;;;;9.99;59.46;93099.31;5087538;28;19911;-49
2021/11/01 16:59:31;;;;;;;69.97;39.63;;;;;;;9.90;60.01;93097.84;5088084;28;20485;-51
2021/11/01 17:02:19;;;;;;;65.78;36.63;;;;;;;9.56;61.93;93100.25;5088058;28;20887;-54
2021/11/01 17:05:14;;;;;;;63.72;36.45;;;;;;;9.60;61.59;93093.09;5088038;28;20020;-54
2021/11/01 17:37:22;;;;;;;37.28;21.83;;;;;;;9.60;63.53;93098.59;5076984;28;20024;-48
2021/11/01 18:45:43;;;;;;;50.88;30.33;;;;;;;8.49;68.07;93125.28;5066366;28;20101;-48
2021/11/01 18:53:37;;;;;;;39.45;25.60;;;;;;;8.40;68.09;93118.28;5085912;28;20043;-49
2021/11/01 18:56:05;;;;;;;83.65;41.45;;;;;;;8.33;68.56;93121.72;5086622;28;20028;-49
2021/11/01 18:58:31;;;;;;;91.80;43.67;;;;;;;8.47;68.36;93119.59;5084873;28;20120;-50
2021/11/01 19:00:58;;;;;;;90.40;42.95;;;;;;;8.25;67.79;93109.94;5070102;28;20040;-49
2021/11/01 19:03:25;;;;;;;96.57;45.13;;;;;;;8.20;68.52;93108.06;5070225;28;20059;-49
2021/11/01 19:08:52;;;;;;;54.25;31.38;;;;;;;8.23;70.64;93106.97;5090104;28;20128;-50
2021/11/01 20:05:38;;;;;;;32.90;20.65;;;;;;;8.61;73.59;93093.41;5077230;28;20035;-50
2021/11/01 21:25:49;;;;;;;38.83;21.33;;;;;;;7.40;77.23;93096.16;5080291;28;20028;-49
2021/11/01 21:28:15;;;;;;;35.33;20.33;;;;;;;7.43;77.22;93091.56;5079186;28;20099;-46
2021/11/01 21:30:41;;;;;;;35.15;19.75;;;;;;;7.27;76.96;93065.25;5081461;28;20020;-47
2021/11/01 21:33:07;;;;;;;31.50;19.33;;;;;;;7.51;76.96;93086.88;5080116;28;20020;-45
2021/11/01 21:35:41;;;;;;;33.70;20.42;;;;;;;7.55;76.74;93098.28;5079798;28;20024;-46
2021/11/01 21:38:06;;;;;;;31.33;19.63;;;;;;;7.45;76.52;93081.50;5078583;28;20485;-47
2021/11/01 21:40:32;;;;;;;40.50;20.40;;;;;;;7.55;75.90;93079.03;5078664;28;20035;-46
2021/11/01 21:42:57;;;;;;;36.95;20.70;;;;;;;7.53;75.53;93082.34;5081160;28;20023;-52
2021/11/01 21:45:23;;;;;;;36.58;20.17;;;;;;;7.50;76.39;93082.66;5079505;28;20078;-48
2021/11/01 21:47:48;;;;;;;36.30;20.98;;;;;;;7.54;76.20;93083.78;5078915;28;20489;-45
2021/11/01 21:50:15;;;;;;;41.50;20.60;;;;;;;7.61;75.28;93076.88;5079135;28;20027;-48
2021/11/01 21:52:43;;;;;;;35.83;19.10;;;;;;;7.63;74.23;93075.06;5080364;28;20107;-46
2021/11/01 21:55:09;;;;;;;33.22;19.58;;;;;;;7.56;74.89;93064.75;5078625;28;20481;-48
2021/11/01 22:22:11;;;;;;;46.85;28.75;;;;;;;7.41;77.22;93017.94;5074625;28;20473;-46
2021/11/01 22:40:34;;;;;;;40.70;23.55;;;;;;;7.68;81.55;93015.00;5073753;28;20093;-45
2021/11/01 22:56:15;;;;;;;69.18;49.53;;;;;;;7.61;80.65;92983.47;5073758;28;20035;-46
2021/11/01 22:58:41;;;;;;;42.80;23.90;;;;;;;7.50;81.46;92978.28;5055897;28;20028;-46
2021/11/01 23:01:17;;;;;;;40.95;22.13;;;;;;;7.73;81.02;92975.66;5073535;28;20028;-47
2021/11/01 23:33:38;;;;;;;34.83;19.98;;;;;;;7.34;80.21;92969.19;5093070;28;20516;-47
2021/11/01 23:36:04;;;;;;;36.70;22.05;;;;;;;7.35;80.50;92962.44;5093154;28;20028;-49
2021/11/01 23:38:29;;;;;;;44.45;23.25;;;;;;;7.30;80.32;92966.06;5092735;28;20568;-45
2021/11/01 23:40:55;;;;;;;32.25;18.52;;;;;;;7.37;79.76;92959.91;5077716;28;20120;-45
2021/11/01 23:43:21;;;;;;;27.42;17.55;;;;;;;7.43;79.30;92951.50;5071744;28;20028;-46
2021/11/01 23:45:47;;;;;;;33.20;19.17;;;;;;;7.44;78.91;92942.72;5072875;28;20020;-43
2021/11/01 23:48:14;;;;;;;30.80;19.13;;;;;;;7.44;78.07;92939.97;5072530;28;20571;-44
2021/11/01 23:50:40;;;;;;;32.95;18.73;;;;;;;7.40;78.47;92944.34;5071973;28;20024;-44
2021/11/01 23:53:13;;;;;;;31.52;20.48;;;;;;;7.19;78.34;92916.94;5072012;28;20028;-47
2021/11/01 23:55:39;;;;;;;43.63;23.40;;;;;;;7.32;79.32;92930.56;5072721;28;20032;-44
2021/11/01 23:58:06;;;;;;;35.42;20.73;;;;;;;7.31;79.14;92929.09;5072693;28;20052;-46
